sensor_id;sensor_type;location;lat;lon;timestamp;pressure;altitude;pressure_sealevel;temperature;humidity
64889;BME280;51386;53.082;8.816;2023-04-03T00:02:09;103212.50;;;9.31;45.00
64889;BME280;51386;53.082;8.816;2023-04-03T00:04:38;103204.81;;;9.28;44.85
64889;BME280;51386;53.082;8.816;2023-04-03T00:07:05;103203.13;;;9.27;45.27
64889;BME280;51386;53.082;8.816;2023-04-03T00:09:32;103192.63;;;9.27;45.49
64889;BME280;51386;53.082;8.816;2023-04-03T00:11:59;103204.81;;;9.28;45.30
64889;BME280;51386;53.082;8.816;2023-04-03T00:14:26;103204.69;;;9.30;45.30
64889;BME280;51386;53.082;8.816;2023-04-03T00:16:54;103199.38;;;9.31;45.45
64889;BME280;51386;53.082;8.816;2023-04-03T00:19:21;103194.72;;;9.35;45.60
64889;BME280;51386;53.082;8.816;2023-04-03T00:21:49;103202.53;;;9.36;45.00
64889;BME280;51386;53.082;8.816;2023-04-03T00:24:17;103201.88;;;9.33;45.28
64889;BME280;51386;53.082;8.816;2023-04-03T00:26:44;103197.66;;;9.30;45.06
64889;BME280;51386;53.082;8.816;2023-04-03T00:29:11;103208.38;;;9.27;44.99
64889;BME280;51386;53.082;8.816;2023-04-03T00:31:38;103209.88;;;9.19;45.32
64889;BME280;51386;53.082;8.816;2023-04-03T00:34:05;103213.00;;;9.11;45.80
64889;BME280;51386;53.082;8.816;2023-04-03T00:36:32;103217.19;;;9.01;45.81
64889;BME280;51386;53.082;8.816;2023-04-03T00:39:00;103221.09;;;8.96;46.05
64889;BME280;51386;53.082;8.816;2023-04-03T00:41:27;103216.22;;;8.90;46.15
64889;BME280;51386;53.082;8.816;2023-04-03T00:43:54;103216.53;;;8.85;46.41
64889;BME280;51386;53.082;8.816;2023-04-03T00:46:21;103225.38;;;8.84;46.48
64889;BME280;51386;53.082;8.816;2023-04-03T00:48:49;103224.53;;;8.83;46.66
64889;BME280;51386;53.082;8.816;2023-04-03T00:51:20;103232.41;;;8.83;46.51
64889;BME280;51386;53.082;8.816;2023-04-03T00:53:53;103232.28;;;8.85;46.91
64889;BME280;51386;53.082;8.816;2023-04-03T00:56:26;103222.44;;;8.89;46.48
64889;BME280;51386;53.082;8.816;2023-04-03T00:58:59;103227.28;;;8.95;46.36
64889;BME280;51386;53.082;8.816;2023-04-03T01:01:29;103229.69;;;8.98;46.53
64889;BME280;51386;53.082;8.816;2023-04-03T01:03:59;103226.22;;;8.97;46.23
64889;BME280;51386;53.082;8.816;2023-04-03T01:06:30;103223.59;;;8.97;45.98
64889;BME280;51386;53.082;8.816;2023-04-03T01:09:00;103226.34;;;8.96;46.14
64889;BME280;51386;53.082;8.816;2023-04-03T01:11:29;103223.06;;;8.92;45.98
64889;BME280;51386;53.082;8.816;2023-04-03T01:13:56;103222.63;;;8.85;46.45
64889;BME280;51386;53.082;8.816;2023-04-03T01:16:23;103222.94;;;8.81;45.91
64889;BME280;51386;53.082;8.816;2023-04-03T01:18:50;103227.66;;;8.76;46.30
64889;BME280;51386;53.082;8.816;2023-04-03T01:21:53;103230.91;;;8.67;46.57
64889;BME280;51386;53.082;8.816;2023-04-03T01:24:34;103236.03;;;8.68;46.61
64889;BME280;51386;53.082;8.816;2023-04-03T01:27:07;103235.19;;;8.68;46.66
64889;BME280;51386;53.082;8.816;2023-04-03T01:29:36;103240.66;;;8.65;46.26
64889;BME280;51386;53.082;8.816;2023-04-03T01:32:05;103242.75;;;8.60;46.62
64889;BME280;51386;53.082;8.816;2023-04-03T01:34:33;103240.31;;;8.57;46.80
64889;BME280;51386;53.082;8.816;2023-04-03T01:37:00;103239.56;;;8.55;46.80
64889;BME280;51386;53.082;8.816;2023-04-03T01:39:27;103238.91;;;8.51;46.86
64889;BME280;51386;53.082;8.816;2023-04-03T01:41:54;103247.81;;;8.49;46.91
64889;BME280;51386;53.082;8.816;2023-04-03T01:44:21;103242.06;;;8.44;47.12
64889;BME280;51386;53.082;8.816;2023-04-03T01:46:48;103252.53;;;8.44;47.01
64889;BME280;51386;53.082;8.816;2023-04-03T01:49:16;103253.38;;;8.44;47.21
64889;BME280;51386;53.082;8.816;2023-04-03T01:51:43;103252.53;;;8.44;47.31
64889;BME280;51386;53.082;8.816;2023-04-03T01:54:10;103248.97;;;8.45;47.43
64889;BME280;51386;53.082;8.816;2023-04-03T01:56:37;103254.88;;;8.48;47.78
64889;BME280;51386;53.082;8.816;2023-04-03T01:59:05;103251.00;;;8.54;47.14
64889;BME280;51386;53.082;8.816;2023-04-03T02:01:32;103255.31;;;8.55;47.23
64889;BME280;51386;53.082;8.816;2023-04-03T02:03:59;103251.72;;;8.56;47.04
64889;BME280;51386;53.082;8.816;2023-04-03T02:06:28;103262.22;;;8.56;47.41
64889;BME280;51386;53.082;8.816;2023-04-03T02:08:55;103263.81;;;8.58;47.10
64889;BME280;51386;53.082;8.816;2023-04-03T02:11:22;103261.00;;;8.61;47.27
64889;BME280;51386;53.082;8.816;2023-04-03T02:13:49;103273.81;;;8.66;47.02
64889;BME280;51386;53.082;8.816;2023-04-03T02:16:16;103258.06;;;8.66;47.00
64889;BME280;51386;53.082;8.816;2023-04-03T02:18:43;103265.03;;;8.67;46.50
64889;BME280;51386;53.082;8.816;2023-04-03T02:21:10;103268.75;;;8.63;46.74
64889;BME280;51386;53.082;8.816;2023-04-03T02:23:38;103264.59;;;8.60;47.00
64889;BME280;51386;53.082;8.816;2023-04-03T02:26:08;103268.25;;;8.58;46.70
64889;BME280;51386;53.082;8.816;2023-04-03T02:28:36;103262.22;;;8.56;47.37
64889;BME280;51386;53.082;8.816;2023-04-03T02:31:05;103264.97;;;8.54;46.67
64889;BME280;51386;53.082;8.816;2023-04-03T02:33:33;103264.34;;;8.51;46.98
64889;BME280;51386;53.082;8.816;2023-04-03T02:36:00;103266.84;;;8.52;47.08
64889;BME280;51386;53.082;8.816;2023-04-03T02:38:27;103261.78;;;8.49;46.75
64889;BME280;51386;53.082;8.816;2023-04-03T02:41:01;103269.09;;;8.44;46.82
64889;BME280;51386;53.082;8.816;2023-04-03T02:43:29;103263.03;;;8.44;47.27
64889;BME280;51386;53.082;8.816;2023-04-03T02:45:56;103268.28;;;8.44;47.28
64889;BME280;51386;53.082;8.816;2023-04-03T02:48:25;103264.91;;;8.42;47.23
64889;BME280;51386;53.082;8.816;2023-04-03T02:50:52;103266.69;;;8.41;47.40
64889;BME280;51386;53.082;8.816;2023-04-03T02:53:19;103266.59;;;8.43;47.01
64889;BME280;51386;53.082;8.816;2023-04-03T02:55:46;103265.13;;;8.39;46.82
64889;BME280;51386;53.082;8.816;2023-04-03T02:58:15;103274.22;;;8.33;47.06
64889;BME280;51386;53.082;8.816;2023-04-03T03:00:42;103262.31;;;8.28;47.57
64889;BME280;51386;53.082;8.816;2023-04-03T03:03:09;103265.13;;;8.25;47.46
64889;BME280;51386;53.082;8.816;2023-04-03T03:05:36;103266.22;;;8.20;47.43
64889;BME280;51386;53.082;8.816;2023-04-03T03:08:03;103277.75;;;8.18;47.39
64889;BME280;51386;53.082;8.816;2023-04-03T03:10:30;103274.50;;;8.14;47.65
64889;BME280;51386;53.082;8.816;2023-04-03T03:12:57;103276.47;;;8.11;47.69
64889;BME280;51386;53.082;8.816;2023-04-03T03:15:25;103268.88;;;8.06;47.79
64889;BME280;51386;53.082;8.816;2023-04-03T03:17:52;103266.44;;;8.03;47.85
64889;BME280;51386;53.082;8.816;2023-04-03T03:20:19;103277.13;;;8.00;48.11
64889;BME280;51386;53.082;8.816;2023-04-03T03:22:47;103275.38;;;8.01;48.40
64889;BME280;51386;53.082;8.816;2023-04-03T03:25:14;103272.63;;;8.02;48.14
64889;BME280;51386;53.082;8.816;2023-04-03T03:27:41;103276.94;;;8.03;48.58
64889;BME280;51386;53.082;8.816;2023-04-03T03:30:09;103277.88;;;8.02;48.12
64889;BME280;51386;53.082;8.816;2023-04-03T03:32:37;103284.06;;;8.01;48.20
64889;BME280;51386;53.082;8.816;2023-04-03T03:35:05;103288.38;;;8.02;48.19
64889;BME280;51386;53.082;8.816;2023-04-03T03:37:32;103278.81;;;8.01;48.36
64889;BME280;51386;53.082;8.816;2023-04-03T03:39:59;103276.28;;;8.00;48.20
64889;BME280;51386;53.082;8.816;2023-04-03T03:42:26;103281.63;;;7.98;47.85
64889;BME280;51386;53.082;8.816;2023-04-03T03:44:52;103275.84;;;7.93;48.49
64889;BME280;51386;53.082;8.816;2023-04-03T03:47:19;103276.75;;;7.92;48.63
64889;BME280;51386;53.082;8.816;2023-04-03T03:49:48;103275.09;;;7.91;48.33
64889;BME280;51386;53.082;8.816;2023-04-03T03:52:15;103282.19;;;7.89;48.08
64889;BME280;51386;53.082;8.816;2023-04-03T03:54:42;103285.94;;;7.85;48.27
64889;BME280;51386;53.082;8.816;2023-04-03T03:57:09;103272.94;;;7.84;48.80
64889;BME280;51386;53.082;8.816;2023-04-03T03:59:36;103278.06;;;7.85;48.68
64889;BME280;51386;53.082;8.816;2023-04-03T04:02:03;103282.28;;;7.88;48.12
64889;BME280;51386;53.082;8.816;2023-04-03T04:04:30;103279.03;;;7.84;48.37
64889;BME280;51386;53.082;8.816;2023-04-03T04:06:58;103287.91;;;7.82;48.38
64889;BME280;51386;53.082;8.816;2023-04-03T04:09:27;103284.63;;;7.78;48.64
64889;BME280;51386;53.082;8.816;2023-04-03T04:11:54;103287.34;;;7.77;48.38
64889;BME280;51386;53.082;8.816;2023-04-03T04:14:21;103291.94;;;7.73;48.60
64889;BME280;51386;53.082;8.816;2023-04-03T04:16:48;103292.09;;;7.70;48.42
64889;BME280;51386;53.082;8.816;2023-04-03T04:19:15;103295.69;;;7.69;48.54
64889;BME280;51386;53.082;8.816;2023-04-03T04:21:43;103294.19;;;7.65;48.82
64889;BME280;51386;53.082;8.816;2023-04-03T04:24:11;103297.16;;;7.59;48.51
64889;BME280;51386;53.082;8.816;2023-04-03T04:26:38;103302.69;;;7.55;48.97
64889;BME280;51386;53.082;8.816;2023-04-03T04:29:05;103296.78;;;7.51;48.94
64889;BME280;51386;53.082;8.816;2023-04-03T04:31:32;103301.19;;;7.50;49.60
64889;BME280;51386;53.082;8.816;2023-04-03T04:33:59;103310.81;;;7.50;49.51
64889;BME280;51386;53.082;8.816;2023-04-03T04:36:26;103309.97;;;7.49;49.05
64889;BME280;51386;53.082;8.816;2023-04-03T04:38:53;103309.13;;;7.49;49.86
64889;BME280;51386;53.082;8.816;2023-04-03T04:41:21;103310.81;;;7.50;49.35
64889;BME280;51386;53.082;8.816;2023-04-03T04:43:52;103308.84;;;7.53;49.51
64889;BME280;51386;53.082;8.816;2023-04-03T04:46:19;103320.09;;;7.56;49.75
64889;BME280;51386;53.082;8.816;2023-04-03T04:48:46;103320.56;;;7.62;49.42
64889;BME280;51386;53.082;8.816;2023-04-03T04:51:15;103316.66;;;7.69;49.61
64889;BME280;51386;53.082;8.816;2023-04-03T04:53:42;103317.97;;;7.76;48.92
64889;BME280;51386;53.082;8.816;2023-04-03T04:56:09;103320.41;;;7.79;48.63
64889;BME280;51386;53.082;8.816;2023-04-03T04:58:38;103317.03;;;7.77;49.14
64889;BME280;51386;53.082;8.816;2023-04-03T05:01:07;103323.09;;;7.78;49.47
64889;BME280;51386;53.082;8.816;2023-04-03T05:03:35;103330.69;;;7.82;49.21
64889;BME280;51386;53.082;8.816;2023-04-03T05:06:03;103324.34;;;7.86;48.74
64889;BME280;51386;53.082;8.816;2023-04-03T05:08:30;103325.66;;;7.93;48.51
64889;BME280;51386;53.082;8.816;2023-04-03T05:10:57;103327.13;;;7.97;48.74
64889;BME280;51386;53.082;8.816;2023-04-03T05:13:24;103332.94;;;8.02;48.52
64889;BME280;51386;53.082;8.816;2023-04-03T05:15:52;103341.22;;;8.10;48.39
64889;BME280;51386;53.082;8.816;2023-04-03T05:18:19;103345.31;;;8.14;48.03
64889;BME280;51386;53.082;8.816;2023-04-03T05:20:48;103338.00;;;8.19;47.88
64889;BME280;51386;53.082;8.816;2023-04-03T05:23:15;103337.63;;;8.26;47.46
64889;BME280;51386;53.082;8.816;2023-04-03T05:25:43;103335.75;;;8.28;47.54
64889;BME280;51386;53.082;8.816;2023-04-03T05:28:12;103335.75;;;8.28;46.91
64889;BME280;51386;53.082;8.816;2023-04-03T05:30:39;103330.69;;;8.25;47.80
64889;BME280;51386;53.082;8.816;2023-04-03T05:33:07;103332.75;;;8.19;47.71
64889;BME280;51386;53.082;8.816;2023-04-03T05:35:36;103334.44;;;8.20;47.55
64889;BME280;51386;53.082;8.816;2023-04-03T05:38:06;103340.41;;;8.23;47.75
64889;BME280;51386;53.082;8.816;2023-04-03T05:40:33;103337.63;;;8.26;47.63
64889;BME280;51386;53.082;8.816;2023-04-03T05:43:00;103342.88;;;8.26;47.50
64889;BME280;51386;53.082;8.816;2023-04-03T05:45:27;103348.09;;;8.26;47.59
64889;BME280;51386;53.082;8.816;2023-04-03T05:47:54;103349.00;;;8.26;47.55
64889;BME280;51386;53.082;8.816;2023-04-03T05:50:23;103347.97;;;8.29;47.75
64889;BME280;51386;53.082;8.816;2023-04-03T05:52:52;103352.81;;;8.35;47.57
64889;BME280;51386;53.082;8.816;2023-04-03T05:55:21;103351.03;;;8.35;47.13
64889;BME280;51386;53.082;8.816;2023-04-03T05:57:48;103358.06;;;8.35;47.31
64889;BME280;51386;53.082;8.816;2023-04-03T06:00:17;103354.69;;;8.33;47.06
64889;BME280;51386;53.082;8.816;2023-04-03T06:02:44;103359.09;;;8.32;47.08
64889;BME280;51386;53.082;8.816;2023-04-03T06:05:12;103357.25;;;8.34;47.23
64889;BME280;51386;53.082;8.816;2023-04-03T06:07:41;103365.00;;;8.36;47.38
64889;BME280;51386;53.082;8.816;2023-04-03T06:10:10;103363.78;;;8.41;47.58
64889;BME280;51386;53.082;8.816;2023-04-03T06:12:37;103369.50;;;8.48;47.43
64889;BME280;51386;53.082;8.816;2023-04-03T06:15:06;103369.94;;;8.54;47.27
64889;BME280;51386;53.082;8.816;2023-04-03T06:17:34;103377.34;;;8.62;47.20
64889;BME280;51386;53.082;8.816;2023-04-03T06:20:01;103373.38;;;8.69;46.88
64889;BME280;51386;53.082;8.816;2023-04-03T06:22:30;103372.81;;;8.78;46.83
64889;BME280;51386;53.082;8.816;2023-04-03T06:24:58;103376.53;;;8.88;46.69
64889;BME280;51386;53.082;8.816;2023-04-03T06:27:25;103378.56;;;8.97;46.50
64889;BME280;51386;53.082;8.816;2023-04-03T06:29:52;103377.34;;;9.03;46.32
64889;BME280;51386;53.082;8.816;2023-04-03T06:32:19;103379.66;;;9.07;46.12
64889;BME280;51386;53.082;8.816;2023-04-03T06:34:46;103377.59;;;9.12;46.17
64889;BME280;51386;53.082;8.816;2023-04-03T06:37:16;103377.16;;;9.18;45.54
64889;BME280;51386;53.082;8.816;2023-04-03T06:39:44;103380.34;;;9.23;45.40
64889;BME280;51386;53.082;8.816;2023-04-03T06:42:13;103377.50;;;9.26;45.50
64889;BME280;51386;53.082;8.816;2023-04-03T06:44:40;103383.50;;;9.28;45.54
64889;BME280;51386;53.082;8.816;2023-04-03T06:47:09;103384.97;;;9.32;45.06
64889;BME280;51386;53.082;8.816;2023-04-03T06:49:36;103379.53;;;9.35;45.20
64889;BME280;51386;53.082;8.816;2023-04-03T06:52:04;103381.22;;;9.36;44.89
64889;BME280;51386;53.082;8.816;2023-04-03T06:54:32;103389.44;;;9.44;45.37
64889;BME280;51386;53.082;8.816;2023-04-03T06:56:59;103396.69;;;9.53;44.61
64889;BME280;51386;53.082;8.816;2023-04-03T06:59:28;103405.88;;;9.61;44.56
64889;BME280;51386;53.082;8.816;2023-04-03T07:01:55;103406.09;;;9.70;44.38
64889;BME280;51386;53.082;8.816;2023-04-03T07:04:22;103408.94;;;9.80;44.33
64889;BME280;51386;53.082;8.816;2023-04-03T07:06:49;103407.81;;;9.84;43.75
64889;BME280;51386;53.082;8.816;2023-04-03T07:09:16;103406.44;;;9.91;43.85
64889;BME280;51386;53.082;8.816;2023-04-03T07:11:43;103408.66;;;10.09;43.07
64889;BME280;51386;53.082;8.816;2023-04-03T07:14:10;103411.69;;;10.54;42.97
64889;BME280;51386;53.082;8.816;2023-04-03T07:16:38;103411.00;;;11.12;42.24
64889;BME280;51386;53.082;8.816;2023-04-03T07:19:08;103414.28;;;11.74;40.58
64889;BME280;51386;53.082;8.816;2023-04-03T07:21:35;103415.69;;;12.35;39.30
64889;BME280;51386;53.082;8.816;2023-04-03T07:24:03;103417.88;;;13.06;38.50
64889;BME280;51386;53.082;8.816;2023-04-03T07:26:30;103412.84;;;13.66;35.99
64889;BME280;51386;53.082;8.816;2023-04-03T07:28:58;103421.06;;;14.35;35.49
64889;BME280;51386;53.082;8.816;2023-04-03T07:31:25;103420.44;;;15.01;33.96
64889;BME280;51386;53.082;8.816;2023-04-03T07:33:53;103424.94;;;15.77;32.96
64889;BME280;51386;53.082;8.816;2023-04-03T07:36:22;103425.88;;;16.42;31.06
64889;BME280;51386;53.082;8.816;2023-04-03T07:38:49;103422.84;;;17.09;30.81
64889;BME280;51386;53.082;8.816;2023-04-03T07:41:18;103413.78;;;17.72;29.51
64889;BME280;51386;53.082;8.816;2023-04-03T07:43:46;103411.69;;;18.43;28.51
64889;BME280;51386;53.082;8.816;2023-04-03T07:46:13;103421.09;;;19.05;27.53
64889;BME280;51386;53.082;8.816;2023-04-03T07:48:41;103417.66;;;19.61;26.57
64889;BME280;51386;53.082;8.816;2023-04-03T07:51:09;103418.88;;;20.13;25.26
64889;BME280;51386;53.082;8.816;2023-04-03T07:53:37;103420.41;;;20.63;24.29
64889;BME280;51386;53.082;8.816;2023-04-03T07:56:04;103423.53;;;21.05;24.01
64889;BME280;51386;53.082;8.816;2023-04-03T07:58:32;103422.75;;;21.42;23.22
64889;BME280;51386;53.082;8.816;2023-04-03T08:00:59;103421.69;;;21.88;22.55
64889;BME280;51386;53.082;8.816;2023-04-03T08:03:27;103420.13;;;22.23;22.21
64889;BME280;51386;53.082;8.816;2023-04-03T08:05:54;103414.56;;;22.68;21.79
64889;BME280;51386;53.082;8.816;2023-04-03T08:08:23;103417.16;;;22.98;21.01
64889;BME280;51386;53.082;8.816;2023-04-03T08:10:52;103419.34;;;23.30;20.79
64889;BME280;51386;53.082;8.816;2023-04-03T08:13:20;103417.56;;;23.58;20.21
64889;BME280;51386;53.082;8.816;2023-04-03T08:15:47;103422.56;;;23.89;19.85
64889;BME280;51386;53.082;8.816;2023-04-03T08:18:15;103417.00;;;24.25;19.21
64889;BME280;51386;53.082;8.816;2023-04-03T08:20:43;103425.06;;;24.72;19.51
64889;BME280;51386;53.082;8.816;2023-04-03T08:23:10;103421.41;;;24.86;18.03
64889;BME280;51386;53.082;8.816;2023-04-03T08:25:40;103422.88;;;24.88;18.39
64889;BME280;51386;53.082;8.816;2023-04-03T08:28:09;103423.50;;;24.97;17.93
64889;BME280;51386;53.082;8.816;2023-04-03T08:30:39;103416.66;;;25.01;18.08
64889;BME280;51386;53.082;8.816;2023-04-03T08:33:08;103415.03;;;25.07;17.56
64889;BME280;51386;53.082;8.816;2023-04-03T08:35:39;103413.19;;;25.33;17.07
64889;BME280;51386;53.082;8.816;2023-04-03T08:38:08;103417.38;;;25.62;17.24
64889;BME280;51386;53.082;8.816;2023-04-03T08:40:35;103413.16;;;25.92;16.99
64889;BME280;51386;53.082;8.816;2023-04-03T08:43:30;103413.03;;;26.45;16.94
64889;BME280;51386;53.082;8.816;2023-04-03T08:46:05;103407.25;;;26.85;15.90
64889;BME280;51386;53.082;8.816;2023-04-03T08:48:39;103407.75;;;27.01;15.53
64889;BME280;51386;53.082;8.816;2023-04-03T08:51:13;103411.81;;;27.16;15.28
64889;BME280;51386;53.082;8.816;2023-04-03T08:53:46;103398.31;;;27.41;15.29
64889;BME280;51386;53.082;8.816;2023-04-03T08:56:18;103396.53;;;27.53;14.20
64889;BME280;51386;53.082;8.816;2023-04-03T08:58:52;103394.00;;;27.58;14.44
64889;BME280;51386;53.082;8.816;2023-04-03T09:01:28;103398.97;;;27.61;14.32
64889;BME280;51386;53.082;8.816;2023-04-03T09:03:56;103392.28;;;28.06;14.21
64889;BME280;51386;53.082;8.816;2023-04-03T09:06:27;103395.38;;;28.58;14.28
64889;BME280;51386;53.082;8.816;2023-04-03T09:09:11;103399.88;;;28.94;13.57
64889;BME280;51386;53.082;8.816;2023-04-03T09:11:53;103392.78;;;29.34;13.67
64889;BME280;51386;53.082;8.816;2023-04-03T09:14:32;103392.47;;;29.77;13.17
64889;BME280;51386;53.082;8.816;2023-04-03T09:17:11;103383.78;;;30.03;12.70
64889;BME280;51386;53.082;8.816;2023-04-03T09:19:49;103383.31;;;30.06;12.74
64889;BME280;51386;53.082;8.816;2023-04-03T09:22:23;103394.19;;;30.06;12.70
64889;BME280;51386;53.082;8.816;2023-04-03T09:24:58;103389.34;;;30.08;11.82
64889;BME280;51386;53.082;8.816;2023-04-03T09:27:27;103381.25;;;30.25;12.60
64889;BME280;51386;53.082;8.816;2023-04-03T09:29:57;103388.97;;;30.56;12.17
64889;BME280;51386;53.082;8.816;2023-04-03T09:32:28;103386.03;;;30.74;12.21
64889;BME280;51386;53.082;8.816;2023-04-03T09:34:59;103386.69;;;30.93;12.01
64889;BME280;51386;53.082;8.816;2023-04-03T09:37:44;103387.41;;;31.38;12.03
64889;BME280;51386;53.082;8.816;2023-04-03T09:40:37;103377.47;;;31.82;11.86
64889;BME280;51386;53.082;8.816;2023-04-03T09:43:28;103374.63;;;32.15;11.19
64889;BME280;51386;53.082;8.816;2023-04-03T09:46:23;103378.81;;;32.23;11.31
64889;BME280;51386;53.082;8.816;2023-04-03T09:48:55;103375.22;;;32.17;10.59
64889;BME280;51386;53.082;8.816;2023-04-03T09:51:35;103366.88;;;32.29;10.88
64889;BME280;51386;53.082;8.816;2023-04-03T09:54:36;103372.25;;;32.45;10.61
64889;BME280;51386;53.082;8.816;2023-04-03T09:57:11;103360.72;;;32.38;10.43
64889;BME280;51386;53.082;8.816;2023-04-03T09:59:46;103361.25;;;32.35;10.18
64889;BME280;51386;53.082;8.816;2023-04-03T10:02:35;103369.38;;;32.52;10.41
64889;BME280;51386;53.082;8.816;2023-04-03T10:05:04;103363.44;;;32.60;10.63
64889;BME280;51386;53.082;8.816;2023-04-03T10:07:37;103363.63;;;32.80;10.22
64889;BME280;51386;53.082;8.816;2023-04-03T10:10:20;103350.94;;;32.69;10.20
64889;BME280;51386;53.082;8.816;2023-04-03T10:13:05;103360.66;;;32.55;10.60
64889;BME280;51386;53.082;8.816;2023-04-03T10:15:39;103362.34;;;32.61;10.45
64889;BME280;51386;53.082;8.816;2023-04-03T10:18:29;103353.13;;;32.67;10.79
64889;BME280;51386;53.082;8.816;2023-04-03T10:21:06;103351.59;;;33.08;10.37
64889;BME280;51386;53.082;8.816;2023-04-03T10:24:01;103360.28;;;33.41;9.93
64889;BME280;51386;53.082;8.816;2023-04-03T10:26:44;103351.59;;;33.50;9.54
64889;BME280;51386;53.082;8.816;2023-04-03T10:29:30;103356.34;;;33.22;9.36
64889;BME280;51386;53.082;8.816;2023-04-03T10:32:22;103349.69;;;32.50;10.25
64889;BME280;51386;53.082;8.816;2023-04-03T10:35:02;103344.31;;;31.68;10.31
64889;BME280;51386;53.082;8.816;2023-04-03T10:37:49;103338.28;;;30.95;11.13
64889;BME280;51386;53.082;8.816;2023-04-03T10:40:29;103334.31;;;30.57;11.42
64889;BME280;51386;53.082;8.816;2023-04-03T10:43:09;103332.28;;;30.64;11.04
64889;BME280;51386;53.082;8.816;2023-04-03T10:45:55;103322.22;;;30.65;10.82
64889;BME280;51386;53.082;8.816;2023-04-03T10:48:51;103331.13;;;29.69;11.22
64889;BME280;51386;53.082;8.816;2023-04-03T10:51:37;103324.81;;;29.52;11.56
64889;BME280;51386;53.082;8.816;2023-04-03T10:54:13;103317.59;;;29.46;11.71
64889;BME280;51386;53.082;8.816;2023-04-03T10:56:48;103313.81;;;29.59;11.76
64889;BME280;51386;53.082;8.816;2023-04-03T10:59:38;103306.75;;;29.23;11.59
64889;BME280;51386;53.082;8.816;2023-04-03T11:02:19;103311.19;;;28.53;12.00
64889;BME280;51386;53.082;8.816;2023-04-03T11:04:56;103318.59;;;28.16;12.23
64889;BME280;51386;53.082;8.816;2023-04-03T11:07:32;103317.97;;;27.96;12.57
64889;BME280;51386;53.082;8.816;2023-04-03T11:10:05;103301.03;;;26.78;12.88
64889;BME280;51386;53.082;8.816;2023-04-03T11:12:44;103298.53;;;26.39;13.56
64889;BME280;51386;53.082;8.816;2023-04-03T11:15:17;103301.78;;;26.85;13.63
64889;BME280;51386;53.082;8.816;2023-04-03T11:17:51;103302.44;;;27.30;13.51
64889;BME280;51386;53.082;8.816;2023-04-03T11:20:25;103294.50;;;27.11;13.51
64889;BME280;51386;53.082;8.816;2023-04-03T11:23:01;103296.22;;;27.05;13.18
64889;BME280;51386;53.082;8.816;2023-04-03T11:25:32;103293.53;;;27.05;13.20
64889;BME280;51386;53.082;8.816;2023-04-03T11:28:03;103283.41;;;27.37;13.04
64889;BME280;51386;53.082;8.816;2023-04-03T11:30:45;103278.41;;;28.13;12.94
64889;BME280;51386;53.082;8.816;2023-04-03T11:33:39;103278.34;;;28.61;12.25
64889;BME280;51386;53.082;8.816;2023-04-03T11:36:17;103287.66;;;28.65;12.75
64889;BME280;51386;53.082;8.816;2023-04-03T11:38:55;103276.59;;;28.66;12.28
64889;BME280;51386;53.082;8.816;2023-04-03T11:41:29;103272.72;;;28.33;12.53
64889;BME280;51386;53.082;8.816;2023-04-03T11:44:00;103275.31;;;27.91;12.58
64889;BME280;51386;53.082;8.816;2023-04-03T11:46:52;103264.88;;;27.95;12.55
64889;BME280;51386;53.082;8.816;2023-04-03T11:50:02;103266.84;;;27.51;12.55
64889;BME280;51386;53.082;8.816;2023-04-03T11:53:02;103271.75;;;27.18;12.58
64889;BME280;51386;53.082;8.816;2023-04-03T11:55:53;103259.00;;;27.01;13.01
64889;BME280;51386;53.082;8.816;2023-04-03T11:58:23;103257.81;;;26.97;12.78
64889;BME280;51386;53.082;8.816;2023-04-03T12:01:09;103250.75;;;26.96;13.72
64889;BME280;51386;53.082;8.816;2023-04-03T12:04:07;103236.66;;;27.30;13.21
64889;BME280;51386;53.082;8.816;2023-04-03T12:07:11;103243.00;;;26.99;13.77
64889;BME280;51386;53.082;8.816;2023-04-03T12:10:13;103237.09;;;27.09;13.61
64889;BME280;51386;53.082;8.816;2023-04-03T12:13:00;103241.47;;;27.28;13.03
64889;BME280;51386;53.082;8.816;2023-04-03T12:15:54;103238.19;;;27.26;13.14
64889;BME280;51386;53.082;8.816;2023-04-03T12:18:56;103239.44;;;26.49;14.10
64889;BME280;51386;53.082;8.816;2023-04-03T12:24:32;103240.59;;;26.35;13.79
64889;BME280;51386;53.082;8.816;2023-04-03T12:27:27;103234.66;;;26.51;14.22
64889;BME280;51386;53.082;8.816;2023-04-03T12:30:05;103224.06;;;26.74;14.10
64889;BME280;51386;53.082;8.816;2023-04-03T12:33:03;103215.34;;;26.72;13.76
64889;BME280;51386;53.082;8.816;2023-04-03T12:35:51;103212.13;;;25.95;14.46
64889;BME280;51386;53.082;8.816;2023-04-03T12:41:57;103226.72;;;23.84;15.29
64889;BME280;51386;53.082;8.816;2023-04-03T12:44:53;103212.28;;;23.17;16.23
64889;BME280;51386;53.082;8.816;2023-04-03T12:47:29;103216.06;;;22.73;16.77
64889;BME280;51386;53.082;8.816;2023-04-03T12:50:00;103209.28;;;22.56;17.04
64889;BME280;51386;53.082;8.816;2023-04-03T12:52:37;103210.91;;;23.00;16.63
64889;BME280;51386;53.082;8.816;2023-04-03T12:55:18;103202.03;;;23.68;16.59
64889;BME280;51386;53.082;8.816;2023-04-03T12:57:48;103198.63;;;24.00;16.60
64889;BME280;51386;53.082;8.816;2023-04-03T13:00:30;103190.63;;;24.33;16.54
64889;BME280;51386;53.082;8.816;2023-04-03T13:03:02;103195.00;;;24.34;16.32
64889;BME280;51386;53.082;8.816;2023-04-03T13:05:32;103198.03;;;24.11;16.63
64889;BME280;51386;53.082;8.816;2023-04-03T13:08:05;103197.97;;;23.91;16.55
64889;BME280;51386;53.082;8.816;2023-04-03T13:10:50;103181.50;;;23.60;16.73
64889;BME280;51386;53.082;8.816;2023-04-03T13:13:19;103193.94;;;22.99;16.85
64889;BME280;51386;53.082;8.816;2023-04-03T13:15:48;103188.84;;;22.34;17.38
64889;BME280;51386;53.082;8.816;2023-04-03T13:18:28;103178.66;;;22.08;17.60
64889;BME280;51386;53.082;8.816;2023-04-03T13:21:03;103188.06;;;21.98;17.86
64889;BME280;51386;53.082;8.816;2023-04-03T13:23:35;103175.47;;;21.84;17.90
64889;BME280;51386;53.082;8.816;2023-04-03T13:26:04;103178.84;;;21.86;17.77
64889;BME280;51386;53.082;8.816;2023-04-03T13:28:35;103171.06;;;22.54;17.16